EWG64P LOWW-EDDH
Flight info
| Callsign | EWG64P |
|---|---|
| Flight time | 1h 12m |
| Altitude | 36000 |
| Route | LANUX DCT LALUK DCT MILGU DCT SOGMA M748 RARUP RARUP6A |
| Aircraft | A320/M-SDE3FGHIRWY/LB1 |
Departure
| Time | 2026-05-05 10:55 |
|---|---|
| Airport | Vienna International Airport (LOWW) |
Arrival
| Time | 2026-05-05 12:08 |
|---|---|
| Airport | Hamburg Helmut Schmidt Airport (EDDH) |
| Time | Latitude | Longitude | Altitude | Speed | Heading |
|---|---|---|---|---|---|
| 2026-05-05 10:31 | 48.11677 | 16.56899 | 605 ft | 0 kts | 26° |
| 2026-05-05 10:44 | 48.11678 | 16.56900 | 604 ft | 2 kts | 26° |
| 2026-05-05 10:44 | 48.11664 | 16.56890 | 623 ft | 2 kts | 26° |
| 2026-05-05 10:45 | 48.11649 | 16.56879 | 611 ft | 2 kts | 26° |
| 2026-05-05 10:45 | 48.11635 | 16.56869 | 620 ft | 2 kts | 26° |
| 2026-05-05 10:45 | 48.11620 | 16.56858 | 620 ft | 2 kts | 26° |
| 2026-05-05 10:45 | 48.11610 | 16.56851 | 616 ft | 2 kts | 26° |
| 2026-05-05 10:46 | 48.11596 | 16.56840 | 616 ft | 2 kts | 14° |
| 2026-05-05 10:46 | 48.11581 | 16.56841 | 613 ft | 2 kts | 307° |
| 2026-05-05 10:46 | 48.11576 | 16.56852 | 625 ft | 0 kts | 284° |
| 2026-05-05 10:49 | 48.11578 | 16.56839 | 614 ft | 7 kts | 284° |
| 2026-05-05 10:49 | 48.11549 | 16.56690 | 616 ft | 16 kts | 242° |
| 2026-05-05 10:49 | 48.11471 | 16.56570 | 617 ft | 16 kts | 225° |
| 2026-05-05 10:49 | 48.11480 | 16.56426 | 620 ft | 14 kts | 291° |
| 2026-05-05 10:50 | 48.11537 | 16.56248 | 625 ft | 24 kts | 300° |
| 2026-05-05 10:50 | 48.11631 | 16.55977 | 624 ft | 31 kts | 296° |
| 2026-05-05 10:50 | 48.11725 | 16.55693 | 618 ft | 30 kts | 295° |
| 2026-05-05 10:50 | 48.11819 | 16.55404 | 614 ft | 32 kts | 296° |
| 2026-05-05 10:51 | 48.11915 | 16.55116 | 610 ft | 30 kts | 296° |
| 2026-05-05 10:51 | 48.12003 | 16.54849 | 607 ft | 28 kts | 296° |
| 2026-05-05 10:51 | 48.12085 | 16.54597 | 611 ft | 26 kts | 295° |
| 2026-05-05 10:51 | 48.12164 | 16.54353 | 601 ft | 26 kts | 296° |
| 2026-05-05 10:52 | 48.12240 | 16.54121 | 598 ft | 25 kts | 296° |
| 2026-05-05 10:52 | 48.12312 | 16.53900 | 597 ft | 23 kts | 296° |
| 2026-05-05 10:52 | 48.12380 | 16.53691 | 596 ft | 21 kts | 296° |
| 2026-05-05 10:52 | 48.12369 | 16.53582 | 599 ft | 8 kts | 208° |
| 2026-05-05 10:53 | 48.12344 | 16.53563 | 601 ft | 0 kts | 207° |
| 2026-05-05 10:53 | 48.12336 | 16.53557 | 601 ft | 6 kts | 207° |
| 2026-05-05 10:53 | 48.12261 | 16.53502 | 602 ft | 12 kts | 206° |
| 2026-05-05 10:54 | 48.12217 | 16.53532 | 601 ft | 0 kts | 115° |
| 2026-05-05 10:54 | 48.12215 | 16.53539 | 600 ft | 4 kts | 115° |
| 2026-05-05 10:54 | 48.12118 | 16.53829 | 600 ft | 65 kts | 116° |
| 2026-05-05 10:54 | 48.11821 | 16.54715 | 615 ft | 121 kts | 117° |
| 2026-05-05 10:55 | 48.11389 | 16.56072 | 622 ft | 166 kts | 112° |
| 2026-05-05 10:55 | 48.10899 | 16.57715 | 1053 ft | 173 kts | 119° |
| 2026-05-05 10:55 | 48.10383 | 16.59339 | 1745 ft | 171 kts | 123° |
| 2026-05-05 10:55 | 48.09883 | 16.60990 | 2195 ft | 191 kts | 112° |
| 2026-05-05 10:56 | 48.09870 | 16.63104 | 2543 ft | 220 kts | 82° |
| 2026-05-05 10:56 | 48.10585 | 16.65354 | 2801 ft | 254 kts | 58° |
| 2026-05-05 10:56 | 48.11608 | 16.67616 | 3168 ft | 279 kts | 60° |
| 2026-05-05 10:56 | 48.12626 | 16.70176 | 3845 ft | 289 kts | 64° |
| 2026-05-05 10:57 | 48.13603 | 16.72810 | 4619 ft | 293 kts | 64° |
| 2026-05-05 10:57 | 48.14588 | 16.75490 | 5063 ft | 295 kts | 63° |
| 2026-05-05 10:57 | 48.15886 | 16.77902 | 5946 ft | 303 kts | 39° |
| 2026-05-05 10:57 | 48.17777 | 16.79307 | 6789 ft | 307 kts | 11° |
| 2026-05-05 10:58 | 48.19893 | 16.79334 | 7637 ft | 305 kts | 346° |
| 2026-05-05 10:58 | 48.21972 | 16.78624 | 8427 ft | 309 kts | 344° |
| 2026-05-05 10:58 | 48.24071 | 16.77875 | 9213 ft | 312 kts | 344° |
| 2026-05-05 10:58 | 48.26197 | 16.77114 | 9920 ft | 317 kts | 345° |
| 2026-05-05 10:59 | 48.28379 | 16.76337 | 10357 ft | 332 kts | 345° |
| 2026-05-05 10:59 | 48.30709 | 16.75509 | 10527 ft | 355 kts | 345° |
| 2026-05-05 10:59 | 48.33148 | 16.74629 | 10994 ft | 365 kts | 342° |
| 2026-05-05 10:59 | 48.35526 | 16.73276 | 11618 ft | 367 kts | 331° |
| 2026-05-05 11:00 | 48.37810 | 16.71506 | 12288 ft | 370 kts | 329° |
| 2026-05-05 11:00 | 48.40111 | 16.69701 | 12950 ft | 374 kts | 328° |
| 2026-05-05 11:00 | 48.42249 | 16.67501 | 13638 ft | 373 kts | 315° |
| 2026-05-05 11:00 | 48.44045 | 16.64703 | 14215 ft | 371 kts | 303° |
| 2026-05-05 11:01 | 48.45421 | 16.61446 | 14807 ft | 368 kts | 292° |
| 2026-05-05 11:01 | 48.46385 | 16.57871 | 15366 ft | 370 kts | 287° |
| 2026-05-05 11:01 | 48.47278 | 16.54221 | 15952 ft | 372 kts | 287° |
| 2026-05-05 11:01 | 48.48182 | 16.50551 | 16551 ft | 375 kts | 287° |
| 2026-05-05 11:02 | 48.49097 | 16.46854 | 17156 ft | 378 kts | 288° |
| 2026-05-05 11:02 | 48.50019 | 16.43137 | 17765 ft | 380 kts | 288° |
| 2026-05-05 11:02 | 48.50946 | 16.39388 | 18331 ft | 382 kts | 288° |
| 2026-05-05 11:02 | 48.51876 | 16.35612 | 18836 ft | 384 kts | 288° |
| 2026-05-05 11:03 | 48.52803 | 16.31821 | 19375 ft | 386 kts | 288° |
| 2026-05-05 11:03 | 48.53735 | 16.28003 | 19887 ft | 389 kts | 288° |
| 2026-05-05 11:03 | 48.54659 | 16.24207 | 20398 ft | 391 kts | 288° |
| 2026-05-05 11:03 | 48.55600 | 16.20338 | 20914 ft | 394 kts | 288° |
| 2026-05-05 11:04 | 48.56571 | 16.16461 | 21384 ft | 398 kts | 292° |
| 2026-05-05 11:04 | 48.57891 | 16.12764 | 21859 ft | 402 kts | 302° |
| 2026-05-05 11:04 | 48.59639 | 16.09450 | 22325 ft | 406 kts | 311° |
| 2026-05-05 11:04 | 48.61578 | 16.06323 | 22800 ft | 409 kts | 311° |
| 2026-05-05 11:05 | 48.63523 | 16.03166 | 23274 ft | 411 kts | 311° |
| 2026-05-05 11:05 | 48.65470 | 15.99991 | 23683 ft | 413 kts | 311° |
| 2026-05-05 11:05 | 48.67424 | 15.96799 | 24060 ft | 415 kts | 311° |
| 2026-05-05 11:05 | 48.69388 | 15.93584 | 24432 ft | 416 kts | 311° |
| 2026-05-05 11:06 | 48.71356 | 15.90358 | 24787 ft | 418 kts | 311° |
| 2026-05-05 11:06 | 48.73336 | 15.87107 | 25133 ft | 421 kts | 311° |
| 2026-05-05 11:06 | 48.75325 | 15.83841 | 25470 ft | 422 kts | 310° |
| 2026-05-05 11:06 | 48.77320 | 15.80557 | 25817 ft | 424 kts | 311° |
| 2026-05-05 11:07 | 48.79323 | 15.77256 | 26143 ft | 426 kts | 311° |
| 2026-05-05 11:07 | 48.81325 | 15.73957 | 26472 ft | 428 kts | 311° |
| 2026-05-05 11:07 | 48.83353 | 15.70616 | 26795 ft | 430 kts | 311° |
| 2026-05-05 11:07 | 48.85383 | 15.67267 | 27114 ft | 432 kts | 311° |
| 2026-05-05 11:08 | 48.87440 | 15.63923 | 27426 ft | 434 kts | 314° |
| 2026-05-05 11:08 | 48.89704 | 15.61006 | 27731 ft | 438 kts | 323° |
| 2026-05-05 11:08 | 48.91080 | 15.59622 | 27892 ft | 440 kts | 327° |
| 2026-05-05 11:08 | 48.93545 | 15.57397 | 28101 ft | 442 kts | 328° |
| 2026-05-05 11:09 | 48.96190 | 15.55090 | 28369 ft | 445 kts | 328° |
| 2026-05-05 11:09 | 48.98748 | 15.52902 | 28693 ft | 445 kts | 329° |
| 2026-05-05 11:09 | 49.01451 | 15.50597 | 29013 ft | 445 kts | 329° |
| 2026-05-05 11:09 | 49.04153 | 15.48275 | 29278 ft | 447 kts | 329° |
| 2026-05-05 11:10 | 49.06898 | 15.45899 | 29533 ft | 448 kts | 329° |
| 2026-05-05 11:10 | 49.09609 | 15.43532 | 29777 ft | 450 kts | 328° |
| 2026-05-05 11:10 | 49.12273 | 15.41197 | 29990 ft | 451 kts | 328° |
| 2026-05-05 11:10 | 49.14998 | 15.38805 | 30191 ft | 452 kts | 328° |
| 2026-05-05 11:11 | 49.17730 | 15.36404 | 30384 ft | 454 kts | 328° |
| 2026-05-05 11:11 | 49.20470 | 15.33996 | 30614 ft | 454 kts | 328° |
| 2026-05-05 11:11 | 49.23208 | 15.31591 | 30899 ft | 453 kts | 328° |
| 2026-05-05 11:11 | 49.25942 | 15.29192 | 31176 ft | 452 kts | 328° |
| 2026-05-05 11:12 | 49.28664 | 15.26800 | 31462 ft | 451 kts | 328° |
| 2026-05-05 11:12 | 49.31381 | 15.24408 | 31765 ft | 450 kts | 328° |
| 2026-05-05 11:12 | 49.34088 | 15.22020 | 32051 ft | 448 kts | 328° |
| 2026-05-05 11:12 | 49.36794 | 15.19627 | 32329 ft | 448 kts | 327° |
| 2026-05-05 11:13 | 49.39488 | 15.17238 | 32609 ft | 447 kts | 327° |
| 2026-05-05 11:13 | 49.42178 | 15.14846 | 32879 ft | 446 kts | 327° |
| 2026-05-05 11:13 | 49.44864 | 15.12457 | 33176 ft | 445 kts | 327° |
| 2026-05-05 11:13 | 49.47542 | 15.10079 | 33466 ft | 444 kts | 327° |
| 2026-05-05 11:14 | 49.50214 | 15.07709 | 33745 ft | 443 kts | 327° |
| 2026-05-05 11:14 | 49.52882 | 15.05339 | 33993 ft | 442 kts | 327° |
| 2026-05-05 11:14 | 49.55541 | 15.02969 | 34216 ft | 442 kts | 327° |
| 2026-05-05 11:14 | 49.58197 | 15.00599 | 34427 ft | 441 kts | 326° |
| 2026-05-05 11:15 | 49.60854 | 14.98221 | 34646 ft | 441 kts | 326° |
| 2026-05-05 11:15 | 49.63504 | 14.95843 | 34843 ft | 441 kts | 326° |
| 2026-05-05 11:15 | 49.66101 | 14.93509 | 35025 ft | 441 kts | 326° |
| 2026-05-05 11:15 | 49.68752 | 14.91122 | 35223 ft | 440 kts | 326° |
| 2026-05-05 11:16 | 49.71363 | 14.88771 | 35419 ft | 440 kts | 326° |
| 2026-05-05 11:16 | 49.74004 | 14.86397 | 35603 ft | 439 kts | 326° |
| 2026-05-05 11:16 | 49.76650 | 14.84021 | 35776 ft | 439 kts | 326° |
| 2026-05-05 11:17 | 49.81924 | 14.79268 | 35825 ft | 438 kts | 326° |
| 2026-05-05 11:17 | 49.87181 | 14.74495 | 35829 ft | 438 kts | 326° |
| 2026-05-05 11:18 | 49.92454 | 14.69715 | 35832 ft | 438 kts | 326° |
| 2026-05-05 11:18 | 49.97713 | 14.64942 | 35834 ft | 437 kts | 325° |
| 2026-05-05 11:19 | 50.02962 | 14.60154 | 35840 ft | 437 kts | 325° |
| 2026-05-05 11:19 | 50.08205 | 14.55348 | 35843 ft | 437 kts | 325° |
| 2026-05-05 11:20 | 50.13451 | 14.50538 | 35845 ft | 437 kts | 325° |
| 2026-05-05 11:20 | 50.18697 | 14.45726 | 35845 ft | 437 kts | 325° |
| 2026-05-05 11:21 | 50.23939 | 14.40892 | 35845 ft | 437 kts | 325° |
| 2026-05-05 11:21 | 50.29181 | 14.36046 | 35851 ft | 438 kts | 325° |
| 2026-05-05 11:22 | 50.34428 | 14.31190 | 35844 ft | 438 kts | 325° |
| 2026-05-05 11:22 | 50.39680 | 14.26315 | 35840 ft | 439 kts | 324° |
| 2026-05-05 11:23 | 50.44926 | 14.21428 | 35839 ft | 439 kts | 325° |
| 2026-05-05 11:23 | 50.50141 | 14.16572 | 35855 ft | 438 kts | 324° |
| 2026-05-05 11:24 | 50.55378 | 14.11669 | 35848 ft | 438 kts | 324° |
| 2026-05-05 11:24 | 50.60608 | 14.06749 | 35872 ft | 438 kts | 324° |
| 2026-05-05 11:25 | 50.65846 | 14.01822 | 35856 ft | 439 kts | 324° |
| 2026-05-05 11:25 | 50.71085 | 13.96888 | 35856 ft | 439 kts | 324° |
| 2026-05-05 11:26 | 50.76324 | 13.91933 | 35867 ft | 438 kts | 324° |
| 2026-05-05 11:26 | 50.81542 | 13.86939 | 35871 ft | 437 kts | 322° |
| 2026-05-05 11:27 | 50.86581 | 13.81598 | 35873 ft | 435 kts | 320° |
| 2026-05-05 11:27 | 50.91513 | 13.76057 | 35877 ft | 435 kts | 320° |
| 2026-05-05 11:28 | 50.96458 | 13.70538 | 35871 ft | 435 kts | 320° |
| 2026-05-05 11:28 | 51.01437 | 13.65076 | 35892 ft | 435 kts | 320° |
| 2026-05-05 11:29 | 51.05610 | 13.60517 | 35891 ft | 434 kts | 320° |
| 2026-05-05 11:29 | 51.10575 | 13.55069 | 35891 ft | 433 kts | 320° |
| 2026-05-05 11:30 | 51.15517 | 13.49601 | 35879 ft | 432 kts | 320° |
| 2026-05-05 11:30 | 51.20449 | 13.44134 | 35885 ft | 432 kts | 320° |
| 2026-05-05 11:31 | 51.25387 | 13.38653 | 35887 ft | 432 kts | 320° |
| 2026-05-05 11:31 | 51.30325 | 13.33160 | 35900 ft | 432 kts | 320° |
| 2026-05-05 11:32 | 51.35257 | 13.27657 | 35895 ft | 431 kts | 320° |
| 2026-05-05 11:32 | 51.40172 | 13.22153 | 35890 ft | 431 kts | 320° |
| 2026-05-05 11:33 | 51.45082 | 13.16640 | 35890 ft | 431 kts | 320° |
| 2026-05-05 11:33 | 51.49984 | 13.11120 | 35889 ft | 430 kts | 320° |
| 2026-05-05 11:34 | 51.54887 | 13.05593 | 35897 ft | 430 kts | 319° |
| 2026-05-05 11:34 | 51.59809 | 13.00116 | 35905 ft | 431 kts | 321° |
| 2026-05-05 11:35 | 51.64867 | 12.94919 | 35899 ft | 432 kts | 322° |
| 2026-05-05 11:35 | 51.69960 | 12.89801 | 35897 ft | 431 kts | 322° |
| 2026-05-05 11:36 | 51.75026 | 12.84609 | 35892 ft | 431 kts | 322° |
| 2026-05-05 11:36 | 51.80060 | 12.79364 | 35892 ft | 431 kts | 321° |
| 2026-05-05 11:37 | 51.85056 | 12.74132 | 35926 ft | 431 kts | 321° |
| 2026-05-05 11:37 | 51.90106 | 12.68862 | 35907 ft | 431 kts | 321° |
| 2026-05-05 11:38 | 51.95153 | 12.63592 | 35901 ft | 432 kts | 321° |
| 2026-05-05 11:38 | 52.00211 | 12.58295 | 35899 ft | 432 kts | 321° |
| 2026-05-05 11:39 | 52.05259 | 12.52998 | 35895 ft | 432 kts | 321° |
| 2026-05-05 11:39 | 52.10291 | 12.47674 | 35894 ft | 432 kts | 321° |
| 2026-05-05 11:40 | 52.15316 | 12.42329 | 35914 ft | 431 kts | 321° |
| 2026-05-05 11:40 | 52.20337 | 12.36987 | 35914 ft | 431 kts | 321° |
| 2026-05-05 11:41 | 52.25358 | 12.31652 | 35913 ft | 431 kts | 321° |
| 2026-05-05 11:41 | 52.30340 | 12.26336 | 35897 ft | 431 kts | 321° |
| 2026-05-05 11:42 | 52.35361 | 12.20961 | 35902 ft | 431 kts | 321° |
| 2026-05-05 11:42 | 52.40382 | 12.15576 | 35912 ft | 431 kts | 321° |
| 2026-05-05 11:43 | 52.45398 | 12.10189 | 35908 ft | 431 kts | 321° |
| 2026-05-05 11:43 | 52.50420 | 12.04775 | 35908 ft | 431 kts | 321° |
| 2026-05-05 11:44 | 52.55431 | 11.99354 | 35921 ft | 431 kts | 321° |
| 2026-05-05 11:44 | 52.60430 | 11.93911 | 35905 ft | 431 kts | 321° |
| 2026-05-05 11:45 | 52.65393 | 11.88389 | 35901 ft | 430 kts | 319° |
| 2026-05-05 11:45 | 52.70149 | 11.82442 | 35913 ft | 428 kts | 316° |
| 2026-05-05 11:46 | 52.74814 | 11.76330 | 35906 ft | 428 kts | 316° |
| 2026-05-05 11:46 | 52.79508 | 11.70269 | 35913 ft | 429 kts | 316° |
| 2026-05-05 11:47 | 52.84239 | 11.64245 | 35924 ft | 429 kts | 316° |
| 2026-05-05 11:47 | 52.88973 | 11.58209 | 35922 ft | 429 kts | 316° |
| 2026-05-05 11:48 | 52.96055 | 11.49127 | 35921 ft | 429 kts | 316° |
| 2026-05-05 11:48 | 53.00772 | 11.43057 | 35919 ft | 429 kts | 316° |
| 2026-05-05 11:49 | 53.05465 | 11.37014 | 35929 ft | 429 kts | 316° |
| 2026-05-05 11:49 | 53.10186 | 11.30943 | 35919 ft | 429 kts | 316° |
| 2026-05-05 11:50 | 53.14968 | 11.24974 | 35934 ft | 431 kts | 319° |
| 2026-05-05 11:50 | 53.19925 | 11.19321 | 35927 ft | 432 kts | 320° |
| 2026-05-05 11:51 | 53.22429 | 11.16509 | 34957 ft | 440 kts | 319° |
| 2026-05-05 11:51 | 53.25022 | 11.13567 | 33779 ft | 448 kts | 319° |
| 2026-05-05 11:51 | 53.27563 | 11.10658 | 32649 ft | 450 kts | 319° |
| 2026-05-05 11:51 | 53.30174 | 11.07640 | 31482 ft | 452 kts | 319° |
| 2026-05-05 11:52 | 53.32731 | 11.04667 | 30330 ft | 454 kts | 319° |
| 2026-05-05 11:52 | 53.35326 | 11.01632 | 28988 ft | 457 kts | 319° |
| 2026-05-05 11:52 | 53.37946 | 10.98556 | 27522 ft | 461 kts | 320° |
| 2026-05-05 11:52 | 53.40587 | 10.95452 | 26023 ft | 466 kts | 320° |
| 2026-05-05 11:53 | 53.43259 | 10.92316 | 24591 ft | 471 kts | 321° |
| 2026-05-05 11:53 | 53.45931 | 10.89190 | 23774 ft | 464 kts | 321° |
| 2026-05-05 11:53 | 53.48564 | 10.86116 | 22952 ft | 456 kts | 322° |
| 2026-05-05 11:53 | 53.51152 | 10.83095 | 22109 ft | 450 kts | 321° |
| 2026-05-05 11:54 | 53.53496 | 10.79739 | 21335 ft | 437 kts | 308° |
| 2026-05-05 11:54 | 53.55392 | 10.75803 | 20546 ft | 431 kts | 305° |
| 2026-05-05 11:54 | 53.57226 | 10.71836 | 19796 ft | 428 kts | 304° |
| 2026-05-05 11:54 | 53.59037 | 10.67891 | 19042 ft | 424 kts | 304° |
| 2026-05-05 11:55 | 53.60831 | 10.63960 | 18350 ft | 421 kts | 304° |
| 2026-05-05 11:55 | 53.62602 | 10.60060 | 17593 ft | 418 kts | 304° |
| 2026-05-05 11:55 | 53.64355 | 10.56176 | 16829 ft | 414 kts | 304° |
| 2026-05-05 11:55 | 53.66083 | 10.52317 | 16109 ft | 411 kts | 304° |
| 2026-05-05 11:56 | 53.67794 | 10.48466 | 15415 ft | 408 kts | 304° |
| 2026-05-05 11:56 | 53.69391 | 10.44544 | 14753 ft | 403 kts | 296° |
| 2026-05-05 11:56 | 53.70271 | 10.40110 | 14129 ft | 397 kts | 277° |
| 2026-05-05 11:56 | 53.70244 | 10.35557 | 13479 ft | 393 kts | 259° |
| 2026-05-05 11:57 | 53.69318 | 10.31253 | 12799 ft | 390 kts | 240° |
| 2026-05-05 11:57 | 53.67791 | 10.27487 | 12132 ft | 388 kts | 234° |
| 2026-05-05 11:57 | 53.66212 | 10.23828 | 11476 ft | 384 kts | 234° |
| 2026-05-05 11:57 | 53.64655 | 10.20231 | 10921 ft | 377 kts | 234° |
| 2026-05-05 11:58 | 53.63093 | 10.16619 | 10395 ft | 370 kts | 234° |
| 2026-05-05 11:58 | 53.61660 | 10.13312 | 10230 ft | 339 kts | 234° |
| 2026-05-05 11:58 | 53.60280 | 10.10138 | 10092 ft | 310 kts | 234° |
| 2026-05-05 11:58 | 53.59015 | 10.07480 | 9963 ft | 286 kts | 223° |
| 2026-05-05 11:59 | 53.57460 | 10.05507 | 9516 ft | 278 kts | 215° |
| 2026-05-05 11:59 | 53.55850 | 10.03727 | 9158 ft | 276 kts | 214° |
| 2026-05-05 11:59 | 53.54248 | 10.01973 | 8775 ft | 274 kts | 214° |
| 2026-05-05 11:59 | 53.52654 | 10.00232 | 8380 ft | 273 kts | 214° |
| 2026-05-05 12:00 | 53.51068 | 9.98496 | 7974 ft | 271 kts | 214° |
| 2026-05-05 12:00 | 53.49492 | 9.96771 | 7584 ft | 270 kts | 214° |
| 2026-05-05 12:00 | 53.47919 | 9.95048 | 7171 ft | 270 kts | 215° |
| 2026-05-05 12:00 | 53.46353 | 9.93340 | 6783 ft | 268 kts | 214° |
| 2026-05-05 12:01 | 53.44796 | 9.91639 | 6406 ft | 267 kts | 214° |
| 2026-05-05 12:01 | 53.43240 | 9.89958 | 6003 ft | 265 kts | 214° |
| 2026-05-05 12:01 | 53.41730 | 9.88214 | 5911 ft | 265 kts | 224° |
| 2026-05-05 12:01 | 53.40707 | 9.85695 | 5924 ft | 264 kts | 252° |
| 2026-05-05 12:02 | 53.40535 | 9.82648 | 5925 ft | 265 kts | 280° |
| 2026-05-05 12:02 | 53.41256 | 9.79837 | 5908 ft | 265 kts | 307° |
| 2026-05-05 12:02 | 53.42606 | 9.77756 | 5503 ft | 265 kts | 322° |
| 2026-05-05 12:02 | 53.44106 | 9.75952 | 5080 ft | 265 kts | 324° |
| 2026-05-05 12:03 | 53.45609 | 9.74189 | 4705 ft | 262 kts | 324° |
| 2026-05-05 12:03 | 53.47105 | 9.72453 | 4290 ft | 261 kts | 327° |
| 2026-05-05 12:03 | 53.48789 | 9.71436 | 3881 ft | 259 kts | 356° |
| 2026-05-05 12:03 | 53.50485 | 9.72154 | 3653 ft | 256 kts | 34° |
| 2026-05-05 12:04 | 53.51610 | 9.74453 | 3390 ft | 259 kts | 68° |
| 2026-05-05 12:04 | 53.52220 | 9.77302 | 3059 ft | 258 kts | 63° |
| 2026-05-05 12:04 | 53.53331 | 9.79592 | 2732 ft | 251 kts | 45° |
| 2026-05-05 12:04 | 53.54500 | 9.81647 | 2399 ft | 232 kts | 49° |
| 2026-05-05 12:05 | 53.55501 | 9.83618 | 2098 ft | 215 kts | 50° |
| 2026-05-05 12:05 | 53.56451 | 9.85535 | 1807 ft | 212 kts | 50° |
| 2026-05-05 12:05 | 53.57392 | 9.87432 | 1514 ft | 209 kts | 50° |
| 2026-05-05 12:05 | 53.58334 | 9.89330 | 1226 ft | 203 kts | 49° |
| 2026-05-05 12:06 | 53.58928 | 9.90520 | 987 ft | 195 kts | 49° |
| 2026-05-05 12:06 | 53.59775 | 9.92169 | 752 ft | 172 kts | 50° |
| 2026-05-05 12:06 | 53.60497 | 9.93685 | 544 ft | 159 kts | 52° |
| 2026-05-05 12:06 | 53.61164 | 9.95035 | 368 ft | 144 kts | 52° |
| 2026-05-05 12:07 | 53.61797 | 9.96313 | 157 ft | 136 kts | 51° |
| 2026-05-05 12:07 | 53.62433 | 9.97603 | 42 ft | 123 kts | 51° |
| 2026-05-05 12:07 | 53.62878 | 9.98499 | 44 ft | 85 kts | 50° |
| 2026-05-05 12:07 | 53.63211 | 9.99177 | 47 ft | 65 kts | 50° |
| 2026-05-05 12:08 | 53.63473 | 9.99713 | 49 ft | 51 kts | 51° |
| 2026-05-05 12:08 | 53.63585 | 9.99948 | 52 ft | 15 kts | 53° |
| 2026-05-05 12:08 | 53.63560 | 10.00088 | 49 ft | 15 kts | 140° |
| 2026-05-05 12:08 | 53.63536 | 10.00120 | 49 ft | 0 kts | 142° |
| 2026-05-05 12:09 | 53.63535 | 10.00121 | 49 ft | 0 kts | 142° |
| 2026-05-05 12:09 | 53.63534 | 10.00122 | 49 ft | 1 kts | 142° |
| 2026-05-05 12:09 | 53.63502 | 10.00165 | 48 ft | 12 kts | 140° |
| 2026-05-05 12:10 | 53.63445 | 10.00219 | 48 ft | 7 kts | 174° |
| 2026-05-05 12:10 | 53.63436 | 10.00220 | 48 ft | 1 kts | 175° |
| 2026-05-05 12:10 | 53.63346 | 10.00234 | 47 ft | 24 kts | 174° |
| 2026-05-05 12:10 | 53.63170 | 10.00253 | 48 ft | 24 kts | 175° |
| 2026-05-05 12:11 | 53.63102 | 10.00268 | 46 ft | 4 kts | 132° |
| 2026-05-05 12:11 | 53.63105 | 10.00300 | 48 ft | 2 kts | 70° |
| 2026-05-05 12:11 | 53.63108 | 10.00315 | 48 ft | 1 kts | 70° |
| 2026-05-05 12:11 | 53.63110 | 10.00326 | 48 ft | 3 kts | 78° |
| 2026-05-05 12:12 | 53.63112 | 10.00375 | 46 ft | 0 kts | 86° |